Time;durP1;ratioP1;P1;durP2;ratioP2;P2;SDS_P1;SDS_P2;PMS_P1;PMS_P2;Temp;Humidity;BMP_temperature;BMP_pressure;BME280_temperature;BME280_humidity;BME280_pressure;Samples;Min_cycle;Max_cycle;Signal;HPM_P1;HPM_P2
2021/12/11 00:01:23;;;;;;;23.13;5.40;;;;;;;15.60;40.81;101015.50;4844887;29;20041;-79
2021/12/11 00:04:01;;;;;;;20.55;5.20;;;;;;;15.67;40.56;101004.78;4844789;29;20061;-79
2021/12/11 00:06:38;;;;;;;17.70;6.65;;;;;;;15.47;41.44;101014.66;4844933;29;20140;-79
2021/12/11 00:09:18;;;;;;;22.90;6.05;;;;;;;15.69;40.84;101011.53;4861384;29;20078;-79
2021/12/11 00:11:47;;;;;;;20.60;7.00;;;;;;;15.81;40.46;101019.84;4844770;29;20446;-78
2021/12/11 00:14:14;;;;;;;19.95;5.80;;;;;;;15.81;40.49;101011.56;4861297;29;20112;-79
2021/12/11 00:16:41;;;;;;;24.73;6.80;;;;;;;15.81;40.68;101016.28;4861305;29;20083;-78
2021/12/11 00:19:14;;;;;;;23.80;6.22;;;;;;;15.81;40.61;101011.56;4861246;29;20104;-79
2021/12/11 00:21:40;;;;;;;18.23;6.15;;;;;;;15.82;40.60;101002.16;4844651;29;20041;-78
2021/12/11 00:24:19;;;;;;;14.65;4.93;;;;;;;15.82;40.72;101009.63;4844477;29;20033;-80
2021/12/11 00:26:58;;;;;;;16.60;5.45;;;;;;;15.80;40.62;101014.69;4860988;29;20057;-79
2021/12/11 00:29:27;;;;;;;20.77;6.10;;;;;;;15.85;40.53;101006.16;4844504;29;20540;-79
2021/12/11 00:32:04;;;;;;;18.48;5.85;;;;;;;15.84;40.47;101010.06;4860991;29;20381;-79
2021/12/11 00:34:30;;;;;;;24.30;5.25;;;;;;;15.87;40.52;101008.56;4860670;29;20475;-79
2021/12/11 00:37:18;;;;;;;21.50;6.50;;;;;;;15.74;40.88;100999.50;4844348;29;20029;-79
2021/12/11 00:40:07;;;;;;;23.80;6.00;;;;;;;15.86;40.68;100999.50;4860912;29;20439;-79
2021/12/11 00:42:34;;;;;;;18.20;6.20;;;;;;;15.89;40.32;101004.34;4844209;29;20037;-79
2021/12/11 00:45:09;;;;;;;13.13;5.40;;;;;;;15.80;40.36;101012.72;4844259;29;20385;-79
2021/12/11 00:47:44;;;;;;;14.80;5.78;;;;;;;15.79;40.69;101010.28;4844219;29;20041;-79
2021/12/11 00:50:13;;;;;;;21.08;6.68;;;;;;;15.82;40.60;101007.66;4860699;29;20048;-79
2021/12/11 00:52:51;;;;;;;19.23;7.05;;;;;;;15.85;40.57;101005.38;4844089;29;20397;-79
2021/12/11 00:55:23;;;;;;;17.58;6.88;;;;;;;15.80;40.65;101009.16;4860624;29;20035;-79
2021/12/11 00:58:03;;;;;;;15.40;5.45;;;;;;;15.76;40.76;100997.22;4860650;29;20040;-79
2021/12/11 01:00:33;;;;;;;15.32;5.97;;;;;;;15.87;40.53;100992.88;4843994;29;20064;-79
2021/12/11 01:02:58;;;;;;;;;;;;;;;15.82;40.54;100991.13;4861229;29;20037;-78
2021/12/11 01:05:24;;;;;;;22.02;5.78;;;;;;;15.90;40.42;100996.88;4843884;29;19916;-79
2021/12/11 01:07:50;;;;;;;22.15;6.15;;;;;;;15.92;40.39;100998.16;4843877;29;20033;-79
2021/12/11 01:10:25;;;;;;;18.55;5.78;;;;;;;15.94;40.48;100995.03;4860452;29;20029;-79
2021/12/11 01:13:01;;;;;;;19.38;5.70;;;;;;;15.95;40.69;100999.44;4860468;29;20034;-79
2021/12/11 01:15:32;;;;;;;35.58;6.63;;;;;;;15.95;40.69;100986.47;4860020;29;20439;-78
2021/12/11 01:21:01;;;;;;;20.02;5.20;;;;;;;15.96;40.60;100999.09;4860326;29;20112;-79
2021/12/11 01:26:00;;;;;;;23.38;5.78;;;;;;;16.03;40.58;100998.53;4860098;29;20026;-79
2021/12/11 01:28:27;;;;;;;17.52;6.13;;;;;;;16.02;40.53;100997.72;4843636;29;20030;-79
2021/12/11 01:30:54;;;;;;;18.67;6.03;;;;;;;16.04;40.55;100998.16;4843586;29;20040;-79
2021/12/11 01:33:20;;;;;;;23.88;8.00;;;;;;;16.00;40.78;100997.22;4860161;29;20045;-79
2021/12/11 01:35:47;;;;;;;17.35;6.05;;;;;;;15.95;40.69;101000.22;4843571;29;20037;-79
2021/12/11 01:38:19;;;;;;;20.27;7.15;;;;;;;15.97;40.97;100997.94;4843525;29;20116;-80
2021/12/11 01:40:49;;;;;;;22.65;6.85;;;;;;;16.03;40.59;100998.53;4860059;29;20030;-78
2021/12/11 01:43:15;;;;;;;16.70;6.35;;;;;;;15.89;40.80;101001.59;4843343;29;20038;-78
2021/12/11 01:45:46;;;;;;;17.90;6.72;;;;;;;15.92;40.93;100995.38;4843469;29;20030;-79
2021/12/11 01:48:27;;;;;;;26.33;7.72;;;;;;;15.94;40.83;100995.84;4860077;29;20029;-78
2021/12/11 01:51:03;;;;;;;20.25;6.38;;;;;;;16.02;40.85;100999.63;4860191;29;20033;-79
2021/12/11 01:53:37;;;;;;;25.83;7.53;;;;;;;15.97;40.76;100988.88;4860124;29;20130;-78
2021/12/11 01:56:17;;;;;;;13.43;5.75;;;;;;;16.05;40.67;100998.97;4843486;29;20120;-78
2021/12/11 01:58:44;;;;;;;20.75;6.78;;;;;;;15.93;40.93;101002.50;4843470;29;20030;-79
2021/12/11 02:01:23;;;;;;;20.35;6.75;;;;;;;16.00;40.50;100994.47;4843180;29;20174;-79
2021/12/11 02:03:52;;;;;;;18.90;7.05;;;;;;;15.99;40.86;100992.06;4858771;29;20108;-79
2021/12/11 02:06:18;;;;;;;23.50;7.97;;;;;;;15.97;40.64;100992.41;4843392;29;20067;-79
2021/12/11 02:08:45;;;;;;;29.48;7.47;;;;;;;15.95;40.58;100994.72;4843319;29;20370;-78
2021/12/11 02:11:21;;;;;;;22.77;6.75;;;;;;;15.96;40.84;100999.09;4859753;29;20117;-79
2021/12/11 02:13:56;;;;;;;15.35;5.57;;;;;;;15.99;40.83;100998.38;4859902;29;20025;-79
2021/12/11 02:16:21;;;;;;;19.27;5.97;;;;;;;15.95;40.82;101000.22;4859878;29;20045;-78
2021/12/11 02:18:51;;;;;;;22.90;6.45;;;;;;;15.94;41.12;100993.09;4859874;29;20057;-79
2021/12/11 02:21:26;;;;;;;16.70;6.53;;;;;;;15.98;40.75;100995.97;4843220;29;20037;-79
2021/12/11 02:24:08;;;;;;;19.52;6.88;;;;;;;16.09;40.73;100997.91;4859713;29;20038;-79
2021/12/11 02:26:39;;;;;;;19.38;7.30;;;;;;;16.02;40.65;101008.75;4842578;29;20458;-79
2021/12/11 02:29:13;;;;;;;20.30;6.15;;;;;;;15.95;40.91;101005.75;4846125;29;20109;-79
2021/12/11 02:31:46;;;;;;;15.05;5.25;;;;;;;15.99;40.90;101003.91;4846548;29;20506;-79
2021/12/11 02:34:14;;;;;;;17.30;5.95;;;;;;;16.06;40.71;101015.16;4863109;29;20112;-79
2021/12/11 02:36:54;;;;;;;20.58;6.65;;;;;;;16.00;40.83;100997.22;4863066;29;20026;-79
2021/12/11 02:39:23;;;;;;;20.92;7.38;;;;;;;16.01;40.88;100987.00;4863037;29;20068;-79
2021/12/11 02:41:49;;;;;;;23.83;7.57;;;;;;;16.11;40.67;100996.81;4863022;29;20072;-79
2021/12/11 02:44:40;;;;;;;26.27;6.85;;;;;;;16.01;40.78;100996.09;4862863;29;20512;-79
2021/12/11 02:47:22;;;;;;;20.30;5.35;;;;;;;16.00;40.67;100993.69;4862847;29;20116;-79
2021/12/11 02:49:54;;;;;;;21.98;6.03;;;;;;;15.99;40.65;100990.13;4846271;29;20116;-79
2021/12/11 02:52:26;;;;;;;25.90;6.65;;;;;;;15.94;40.98;100979.31;4862766;29;20040;-79
2021/12/11 02:55:06;;;;;;;16.30;5.50;;;;;;;15.96;41.04;100982.56;4862769;29;20030;-79
2021/12/11 02:57:43;;;;;;;18.90;6.03;;;;;;;15.99;40.97;100986.56;4846152;29;20037;-79
2021/12/11 03:00:18;;;;;;;17.50;5.95;;;;;;;15.97;41.08;100992.41;4862698;29;20034;-79
2021/12/11 03:02:50;;;;;;;18.83;5.43;;;;;;;15.92;41.11;100986.31;4862515;29;20032;-79
2021/12/11 03:05:23;;;;;;;15.40;5.25;;;;;;;15.81;41.60;100980.47;4862634;29;20392;-79
2021/12/11 03:07:53;;;;;;;19.38;5.68;;;;;;;15.94;41.29;100987.56;4862579;29;20060;-80
2021/12/11 03:10:24;;;;;;;17.60;4.63;;;;;;;16.01;41.18;100982.31;4862545;29;20166;-78
2021/12/11 03:12:52;;;;;;;18.17;4.93;;;;;;;15.97;41.15;100972.31;4862439;29;20057;-79
2021/12/11 03:15:18;;;;;;;22.85;5.60;;;;;;;16.10;40.88;100968.44;4845889;29;20477;-79
2021/12/11 03:17:45;;;;;;;22.38;6.28;;;;;;;16.12;41.07;100960.63;4845806;29;20021;-79
2021/12/11 03:20:14;;;;;;;14.88;4.88;;;;;;;16.18;40.63;100964.75;4845488;29;20029;-79
2021/12/11 03:22:42;;;;;;;17.02;5.65;;;;;;;16.20;40.68;100961.66;4861765;29;20035;-78
2021/12/11 03:25:12;;;;;;;21.88;7.03;;;;;;;16.16;40.93;100957.97;4845658;29;20057;-79
2021/12/11 03:27:38;;;;;;;15.55;5.68;;;;;;;16.19;40.92;100960.84;4862045;29;20529;-79
2021/12/11 03:30:14;;;;;;;13.82;4.45;;;;;;;16.23;40.79;100949.91;4845521;29;20116;-79
2021/12/11 03:32:40;;;;;;;19.33;5.60;;;;;;;16.18;41.12;100955.69;4845063;29;20035;-79
2021/12/11 03:35:08;;;;;;;25.50;6.18;;;;;;;16.22;41.24;100960.13;4862153;29;20398;-79
2021/12/11 03:37:34;;;;;;;14.10;4.90;;;;;;;16.26;40.87;100965.78;4845397;29;20026;-79
2021/12/11 03:40:01;;;;;;;17.50;6.55;;;;;;;16.28;40.91;100949.69;4844978;29;20033;-79
2021/12/11 03:42:31;;;;;;;16.90;4.50;;;;;;;16.28;40.87;100936.72;4845230;29;20029;-79
2021/12/11 03:44:59;;;;;;;20.13;5.20;;;;;;;16.32;40.98;100937.63;4845037;29;20067;-78
2021/12/11 03:47:31;;;;;;;39.30;7.55;;;;;;;16.33;40.99;100935.69;4861653;29;20029;-79
2021/12/11 03:49:57;;;;;;;17.23;5.20;;;;;;;16.35;40.91;100945.19;4861768;29;20040;-78
2021/12/11 03:52:24;;;;;;;17.33;5.07;;;;;;;16.38;40.87;100938.19;4861665;29;20538;-79
2021/12/11 03:54:52;;;;;;;19.40;4.68;;;;;;;16.38;40.76;100940.94;4844727;29;20033;-79
2021/12/11 03:57:23;;;;;;;18.02;4.90;;;;;;;16.20;41.46;100940.38;4844982;29;20099;-79
2021/12/11 03:59:49;;;;;;;20.13;4.72;;;;;;;16.38;41.02;100935.41;4861684;29;20056;-79
2021/12/11 04:02:20;;;;;;;17.33;4.22;;;;;;;16.24;41.32;100924.75;4844860;29;20033;-79
2021/12/11 04:04:49;;;;;;;18.75;5.68;;;;;;;16.21;41.32;100922.69;4844991;29;20026;-79
2021/12/11 04:07:23;;;;;;;19.65;5.55;;;;;;;16.23;41.38;100934.19;4844884;29;20032;-79
2021/12/11 04:09:49;;;;;;;31.55;5.25;;;;;;;16.27;41.34;100917.75;4861536;29;20037;-77
2021/12/11 04:12:16;;;;;;;27.25;5.70;;;;;;;16.27;41.37;100909.50;4844802;29;20033;-76
2021/12/11 04:14:47;;;;;;;17.45;5.20;;;;;;;16.27;41.55;100907.53;4844815;29;20028;-77
2021/12/11 04:17:18;;;;;;;13.40;4.47;;;;;;;16.28;41.34;100895.34;4861589;29;20093;-76
2021/12/11 04:19:44;;;;;;;18.25;6.10;;;;;;;16.30;41.35;100893.03;4861453;29;20034;-76
2021/12/11 04:22:11;;;;;;;29.35;5.72;;;;;;;16.30;41.94;100898.56;4861430;29;20052;-76
2021/12/11 04:24:39;;;;;;;28.98;4.45;;;;;;;16.30;41.61;100906.81;4844800;29;20037;-76
2021/12/11 04:27:09;;;;;;;16.05;5.65;;;;;;;16.28;41.64;100908.34;4844538;29;20068;-76
2021/12/11 04:29:35;;;;;;;;;;;;;;;16.27;41.66;100903.97;4845112;29;20026;-76
2021/12/11 04:32:03;;;;;;;19.95;4.28;;;;;;;16.24;41.71;100886.16;4844644;29;19919;-76
2021/12/11 04:34:33;;;;;;;14.68;4.18;;;;;;;16.32;41.69;100887.16;4844656;29;20121;-77
2021/12/11 04:37:12;;;;;;;16.90;4.90;;;;;;;16.22;41.78;100873.88;4844549;29;20040;-76
2021/12/11 04:39:43;;;;;;;15.77;4.28;;;;;;;16.34;41.51;100890.41;4844663;29;20037;-75
2021/12/11 04:42:19;;;;;;;19.02;4.55;;;;;;;16.33;41.81;100899.84;4860997;29;20125;-76
2021/12/11 04:44:47;;;;;;;19.35;4.50;;;;;;;16.41;41.61;100898.88;4861101;29;20118;-76
2021/12/11 04:47:41;;;;;;;18.17;5.40;;;;;;;16.38;41.90;100891.28;4844308;29;20096;-77
2021/12/11 04:50:21;;;;;;;14.60;3.65;;;;;;;16.42;41.60;100875.69;4843601;29;20033;-76
2021/12/11 04:52:54;;;;;;;16.08;4.82;;;;;;;16.45;41.73;100866.69;4844233;29;20085;-76
2021/12/11 04:58:39;;;;;;;13.98;4.32;;;;;;;16.44;41.66;100873.38;4861155;29;20040;-76
2021/12/11 05:04:11;;;;;;;16.60;4.63;;;;;;;16.47;41.65;100867.13;4860128;29;20045;-76
2021/12/11 05:11:51;;;;;;;12.48;3.47;;;;;;;16.53;41.79;100862.19;4860778;29;20034;-76
2021/12/11 05:14:20;;;;;;;14.20;3.63;;;;;;;16.46;41.73;100871.06;4860604;29;20420;-76
2021/12/11 05:16:46;;;;;;;21.75;4.25;;;;;;;16.52;41.50;100864.13;4860538;29;20030;-76
2021/12/11 05:19:13;;;;;;;22.05;3.70;;;;;;;16.53;41.57;100868.50;4843752;29;20026;-76
2021/12/11 05:21:39;;;;;;;19.05;4.18;;;;;;;16.53;41.74;100864.94;4860456;29;20028;-75
2021/12/11 05:24:06;;;;;;;17.83;4.25;;;;;;;16.59;41.69;100869.06;4860329;29;20037;-76
2021/12/11 05:26:32;;;;;;;14.80;3.85;;;;;;;16.64;41.68;100866.88;4860229;29;20413;-76
2021/12/11 05:28:58;;;;;;;9.23;3.28;;;;;;;16.79;41.36;100867.31;4843778;29;20120;-76
2021/12/11 05:31:23;;;;;;;22.13;5.05;;;;;;;16.83;41.33;100869.00;4843831;29;20117;-76
2021/12/11 05:33:50;;;;;;;16.75;3.80;;;;;;;16.84;41.18;100865.06;4860345;29;20629;-76
2021/12/11 05:36:17;;;;;;;13.57;3.85;;;;;;;16.78;41.33;100869.25;4860175;29;20511;-76
2021/12/11 05:38:47;;;;;;;13.38;4.30;;;;;;;16.70;41.65;100872.16;4859841;29;20034;-76
2021/12/11 05:41:17;;;;;;;14.35;3.60;;;;;;;16.65;41.47;100868.47;4843652;29;20532;-76
2021/12/11 05:43:44;;;;;;;15.25;3.67;;;;;;;16.66;41.78;100872.03;4843520;29;20030;-75
2021/12/11 05:46:13;;;;;;;9.80;2.97;;;;;;;16.69;41.87;100867.75;4843645;29;20489;-76
2021/12/11 05:48:41;;;;;;;12.43;3.45;;;;;;;16.72;41.52;100861.59;4859658;29;20029;-75
2021/12/11 05:51:10;;;;;;;14.18;3.78;;;;;;;16.72;41.52;100842.28;4858933;29;20068;-76
2021/12/11 05:53:37;;;;;;;14.23;3.88;;;;;;;16.73;41.54;100839.16;4843407;29;20374;-76
2021/12/11 05:56:10;;;;;;;15.43;3.47;;;;;;;16.62;41.80;100838.84;4843279;29;20034;-76
2021/12/11 05:58:47;;;;;;;22.85;5.68;;;;;;;16.65;41.82;100829.84;4860169;29;20029;-76
2021/12/11 06:01:17;;;;;;;15.80;4.25;;;;;;;16.67;41.76;100831.44;4843674;29;20499;-75
2021/12/11 06:03:43;;;;;;;14.63;3.90;;;;;;;16.67;41.90;100817.66;4863884;29;20162;-75
2021/12/11 06:06:09;;;;;;;13.13;3.00;;;;;;;16.68;41.77;100816.50;4863709;29;20104;-76
2021/12/11 06:08:34;;;;;;;12.25;3.42;;;;;;;16.80;41.30;100816.47;4847016;29;20026;-75
2021/12/11 06:11:00;;;;;;;12.30;4.05;;;;;;;16.73;41.73;100811.56;4863512;29;20063;-76
2021/12/11 06:13:29;;;;;;;18.30;4.90;;;;;;;16.81;41.57;100818.88;4863497;29;20033;-76
2021/12/11 06:15:55;;;;;;;12.18;3.67;;;;;;;16.77;41.29;100823.47;4863457;29;20025;-76
2021/12/11 06:18:21;;;;;;;12.45;2.88;;;;;;;16.73;41.88;100821.78;4846905;29;20388;-76
2021/12/11 06:20:48;;;;;;;13.38;3.92;;;;;;;16.79;41.69;100826.72;4846788;29;20108;-75
2021/12/11 06:23:15;;;;;;;13.38;3.22;;;;;;;16.85;41.75;100835.50;4846983;29;20174;-76
2021/12/11 06:25:41;;;;;;;18.40;3.60;;;;;;;16.81;41.86;100826.34;4863022;29;20121;-76
2021/12/11 06:28:08;;;;;;;21.33;5.03;;;;;;;16.77;41.92;100833.72;4846486;29;20138;-76
2021/12/11 06:30:34;;;;;;;13.50;4.13;;;;;;;16.78;42.00;100818.78;4846698;29;20025;-76
2021/12/11 06:33:00;;;;;;;20.10;4.15;;;;;;;16.79;42.16;100823.94;4863153;29;20045;-76
2021/12/11 06:35:31;;;;;;;11.25;3.92;;;;;;;16.84;42.06;100831.97;4863158;29;20025;-76
2021/12/11 06:37:57;;;;;;;10.20;3.08;;;;;;;16.83;42.07;100840.59;4863218;29;20029;-76
2021/12/11 06:40:25;;;;;;;15.07;3.22;;;;;;;16.84;42.06;100826.44;4846135;29;20032;-74
2021/12/11 06:42:51;;;;;;;17.35;4.28;;;;;;;16.90;42.13;100824.22;4846375;29;20030;-76
2021/12/11 06:45:18;;;;;;;9.70;3.50;;;;;;;16.90;41.96;100816.75;4862958;29;20407;-75
2021/12/11 06:47:44;;;;;;;7.75;2.70;;;;;;;16.94;42.10;100819.63;4846491;29;20034;-76
2021/12/11 06:50:10;;;;;;;19.83;3.85;;;;;;;16.90;42.17;100829.75;4862896;29;20083;-76
2021/12/11 06:52:36;;;;;;;12.30;3.30;;;;;;;16.97;42.05;100818.09;4862871;29;20038;-76
2021/12/11 06:55:03;;;;;;;14.70;2.45;;;;;;;16.87;42.35;100811.16;4846261;29;20026;-75
2021/12/11 06:57:29;;;;;;;15.55;3.22;;;;;;;16.91;42.59;100821.09;4838680;29;20033;-76
2021/12/11 06:59:55;;;;;;;10.48;2.38;;;;;;;16.93;42.64;100812.50;4846199;29;20036;-76
2021/12/11 07:02:21;;;;;;;18.73;3.20;;;;;;;16.96;42.72;100817.28;4846019;29;20041;-76
2021/12/11 07:04:48;;;;;;;15.98;3.40;;;;;;;17.02;42.66;100807.59;4862628;29;20025;-77
2021/12/11 07:07:21;;;;;;;17.23;3.33;;;;;;;17.06;42.53;100816.75;4862643;29;20033;-76
2021/12/11 07:09:47;;;;;;;21.38;4.78;;;;;;;16.97;42.75;100807.84;4862758;29;20030;-76
2021/12/11 07:12:12;;;;;;;15.73;3.70;;;;;;;16.99;43.02;100802.78;4845901;29;20045;-77
2021/12/11 07:14:39;;;;;;;18.92;3.80;;;;;;;16.91;43.29;100795.47;4845160;29;20375;-76
2021/12/11 07:17:05;;;;;;;17.08;2.67;;;;;;;16.96;43.04;100797.19;4862406;29;20030;-76
2021/12/11 07:19:31;;;;;;;9.18;2.80;;;;;;;16.91;43.54;100803.75;4845904;29;20025;-76
2021/12/11 07:21:57;;;;;;;17.52;4.45;;;;;;;16.95;43.29;100799.13;4862258;29;20454;-75
2021/12/11 07:24:32;;;;;;;10.73;3.50;;;;;;;16.88;44.09;100798.94;4862249;29;20033;-76
2021/12/11 07:27:01;;;;;;;13.23;3.80;;;;;;;16.95;43.54;100799.13;4845545;29;20050;-76
2021/12/11 07:29:27;;;;;;;16.77;3.55;;;;;;;16.77;44.06;100789.56;4862188;29;20025;-76
2021/12/11 07:31:53;;;;;;;24.90;3.58;;;;;;;16.88;43.81;100794.22;4845542;29;20030;-76
2021/12/11 07:34:20;;;;;;;20.70;4.22;;;;;;;16.87;43.89;100800.09;4845524;29;20057;-77
2021/12/11 07:36:47;;;;;;;15.32;4.43;;;;;;;16.79;43.97;100790.03;4862091;29;20029;-76
2021/12/11 07:39:16;;;;;;;17.55;5.00;;;;;;;16.67;44.42;100787.31;4862059;29;20029;-76
2021/12/11 07:41:42;;;;;;;15.57;5.13;;;;;;;16.54;44.98;100797.59;4845415;29;20029;-76
2021/12/11 07:44:08;;;;;;;15.15;4.35;;;;;;;16.79;44.31;100790.03;4861908;29;20504;-76
2021/12/11 07:46:35;;;;;;;14.98;5.30;;;;;;;16.88;44.25;100790.66;4845319;29;20061;-76
2021/12/11 07:49:03;;;;;;;15.90;6.85;;;;;;;16.88;43.84;100783.19;4861863;29;20033;-76
2021/12/11 07:51:30;;;;;;;17.77;5.13;;;;;;;16.93;44.06;100795.94;4845257;29;20117;-77
2021/12/11 07:53:56;;;;;;;19.83;5.45;;;;;;;16.90;44.06;100791.09;4845235;29;20034;-76
2021/12/11 07:56:23;;;;;;;19.60;8.35;;;;;;;16.84;44.49;100784.25;4861797;29;20666;-76
2021/12/11 07:58:52;;;;;;;14.00;4.57;;;;;;;16.89;44.12;100795.81;4861792;29;20037;-76
2021/12/11 08:01:19;;;;;;;20.25;8.90;;;;;;;16.91;44.41;100773.38;4845020;29;20029;-77
2021/12/11 08:03:45;;;;;;;30.05;9.50;;;;;;;16.87;44.38;100761.47;4861620;29;20149;-76
2021/12/11 08:06:12;;;;;;;15.40;4.93;;;;;;;16.80;44.81;100764.84;4861662;29;20046;-77
2021/12/11 08:08:39;;;;;;;17.02;5.18;;;;;;;16.85;44.51;100767.34;4845079;29;20029;-77
2021/12/11 08:11:13;;;;;;;13.35;4.53;;;;;;;16.82;44.68;100772.75;4861501;29;20040;-76
2021/12/11 08:13:44;;;;;;;17.70;5.82;;;;;;;16.87;44.76;100778.03;4861491;29;20056;-76
2021/12/11 08:16:11;;;;;;;28.85;8.93;;;;;;;16.77;44.90;100771.06;4844944;29;20527;-76
2021/12/11 08:18:37;;;;;;;12.75;5.30;;;;;;;16.80;45.17;100775.09;4861350;29;20030;-75
2021/12/11 08:21:03;;;;;;;11.98;5.50;;;;;;;16.88;44.75;100769.38;4861371;29;20026;-75
2021/12/11 08:23:29;;;;;;;12.15;5.60;;;;;;;16.84;44.97;100771.25;4861459;29;20397;-77
2021/12/11 08:25:55;;;;;;;27.48;8.05;;;;;;;16.95;44.60;100768.78;4860909;29;20040;-75
2021/12/11 08:28:27;;;;;;;35.17;16.55;;;;;;;16.94;44.78;100758.91;4844652;29;20033;-76
2021/12/11 08:30:54;;;;;;;19.42;9.82;;;;;;;16.97;44.77;100766.47;4861124;29;20032;-75
2021/12/11 08:33:22;;;;;;;16.13;6.80;;;;;;;17.03;44.62;100773.31;4861079;29;20025;-76
2021/12/11 08:35:48;;;;;;;25.17;8.93;;;;;;;17.00;45.00;100770.47;4844544;29;20400;-75
2021/12/11 08:38:14;;;;;;;17.25;6.38;;;;;;;17.01;44.92;100767.38;4844418;29;20040;-78
2021/12/11 08:40:46;;;;;;;14.55;7.53;;;;;;;17.07;44.80;100771.44;4844918;29;20040;-80
2021/12/11 08:43:15;;;;;;;26.98;7.10;;;;;;;17.00;45.04;100768.50;4845552;29;20032;-80
2021/12/11 08:45:56;;;;;;;17.63;7.47;;;;;;;17.08;45.05;100770.31;4845496;29;20037;-82
2021/12/11 08:48:25;;;;;;;14.48;5.85;;;;;;;17.01;45.21;100759.09;4845714;29;20273;-79
2021/12/11 08:50:58;;;;;;;21.08;7.68;;;;;;;17.00;45.44;100759.41;4844820;29;20125;-81
2021/12/11 08:53:24;;;;;;;16.20;6.15;;;;;;;17.04;45.31;100757.56;4845481;29;20508;-81
2021/12/11 08:55:54;;;;;;;17.20;7.18;;;;;;;17.12;45.21;100749.09;4844888;29;20029;-73
2021/12/11 08:58:21;;;;;;;15.73;6.03;;;;;;;16.99;45.76;100738.50;4861082;29;20033;-78
2021/12/11 09:00:59;;;;;;;14.90;5.50;;;;;;;17.20;45.14;100750.06;4844572;29;20499;-81
2021/12/11 09:03:34;;;;;;;24.40;7.35;;;;;;;17.12;45.88;100753.81;4861358;29;20076;-82
2021/12/11 09:06:05;;;;;;;13.23;7.63;;;;;;;17.19;45.62;100751.22;4860989;29;20033;-77
2021/12/11 09:08:51;;;;;;;17.65;6.88;;;;;;;17.14;46.02;100757.00;4844308;29;20029;-82
2021/12/11 09:11:29;;;;;;;22.27;6.65;;;;;;;17.25;45.50;100752.56;4860983;29;20070;-82
2021/12/11 09:14:01;;;;;;;18.38;6.65;;;;;;;17.21;45.61;100746.16;4861455;29;20128;-84
2021/12/11 09:16:32;;;;;;;33.42;6.70;;;;;;;17.15;46.04;100739.28;4860727;29;20434;-79
2021/12/11 09:19:18;;;;;;;11.98;5.35;;;;;;;17.28;45.48;100734.47;4861591;29;20034;-88
2021/12/11 09:22:04;;;;;;;11.63;5.35;;;;;;;17.31;45.75;100728.25;4847332;29;20049;-80
2021/12/11 09:24:48;;;;;;;17.08;5.15;;;;;;;17.27;46.24;100727.34;4839450;29;20144;-85
2021/12/11 09:27:43;;;;;;;10.98;4.95;;;;;;;17.38;45.91;100728.38;4860405;29;20498;-85
2021/12/11 09:30:41;;;;;;;8.90;5.85;;;;;;;17.43;46.01;100725.38;4806145;29;20114;-86
2021/12/11 09:33:14;;;;;;;28.77;17.20;;;;;;;17.54;45.89;100718.13;4829950;29;20112;-88
2021/12/11 09:35:43;;;;;;;19.45;9.98;;;;;;;17.58;45.59;100723.72;4829902;29;20049;-82
2021/12/11 09:38:31;;;;;;;20.55;7.18;;;;;;;17.73;45.34;100720.16;4828560;29;20037;-80
2021/12/11 09:40:56;;;;;;;14.85;6.97;;;;;;;17.76;45.63;100719.44;4841634;29;20061;-79
2021/12/11 09:43:38;;;;;;;10.40;5.60;;;;;;;17.86;45.50;100729.91;4825785;29;20506;-84
2021/12/11 09:46:07;;;;;;;14.57;5.57;;;;;;;17.90;45.61;100718.91;4842279;29;20030;-82
2021/12/11 09:48:33;;;;;;;8.40;4.00;;;;;;;17.87;45.82;100727.94;4825477;29;20066;-82
2021/12/11 09:51:03;;;;;;;12.10;3.13;;;;;;;17.95;45.75;100718.63;4846969;29;20026;-79
2021/12/11 09:53:37;;;;;;;19.60;13.10;;;;;;;17.97;46.05;100719.06;4838333;29;20037;-80
2021/12/11 09:56:08;;;;;;;27.73;22.55;;;;;;;17.90;46.38;100705.09;4860416;29;20036;-80
2021/12/11 09:58:37;;;;;;;28.40;12.15;;;;;;;18.07;45.70;100717.72;4861423;29;20109;-81
2021/12/11 10:01:08;;;;;;;17.90;6.05;;;;;;;18.11;46.05;100716.59;4823884;29;20104;-82
2021/12/11 10:03:45;;;;;;;8.10;3.45;;;;;;;18.08;46.16;100714.56;4825839;29;20675;-82
2021/12/11 10:06:26;;;;;;;14.05;4.72;;;;;;;18.19;46.10;100718.34;4840506;29;20086;-82
2021/12/11 10:09:09;;;;;;;8.10;3.53;;;;;;;18.27;45.88;100713.75;4825620;29;20057;-83
2021/12/11 10:11:36;;;;;;;11.65;3.63;;;;;;;18.20;46.19;100714.41;4842177;29;20109;-84
2021/12/11 10:14:11;;;;;;;11.57;3.90;;;;;;;18.22;46.65;100717.63;4841866;29;20079;-84
2021/12/11 10:16:41;;;;;;;11.18;3.40;;;;;;;18.28;46.37;100715.34;4825823;29;20497;-83
2021/12/11 10:19:09;;;;;;;18.90;9.82;;;;;;;18.41;46.19;100713.22;4825783;29;20504;-84
2021/12/11 10:21:40;;;;;;;11.73;3.42;;;;;;;18.51;46.01;100718.16;4841837;29;20087;-83
2021/12/11 10:24:13;;;;;;;12.48;4.00;;;;;;;18.39;46.48;100727.44;4842221;29;20030;-84
2021/12/11 10:26:40;;;;;;;7.82;2.70;;;;;;;18.50;46.15;100708.25;4832262;29;20053;-83
2021/12/11 10:29:10;;;;;;;20.15;5.03;;;;;;;18.44;46.77;100723.53;4860399;29;20029;-85
2021/12/11 10:31:55;;;;;;;8.05;3.10;;;;;;;18.59;46.27;100708.84;4844133;29;20052;-83
2021/12/11 10:34:25;;;;;;;12.18;3.92;;;;;;;18.66;46.16;100700.66;4844445;29;20034;-83
2021/12/11 10:37:18;;;;;;;12.45;3.70;;;;;;;18.72;46.32;100715.00;4844041;29;20026;-83
2021/12/11 10:39:50;;;;;;;12.85;3.92;;;;;;;18.60;46.29;100707.66;4844005;29;20068;-82
2021/12/11 10:42:16;;;;;;;17.17;4.03;;;;;;;18.60;46.87;100699.34;4859842;29;20120;-83
2021/12/11 10:44:46;;;;;;;11.98;3.70;;;;;;;18.63;46.87;100697.81;4860401;29;20043;-83
2021/12/11 10:47:18;;;;;;;12.38;3.58;;;;;;;18.67;46.72;100688.44;4844069;29;20030;-83
2021/12/11 10:49:46;;;;;;;16.63;5.07;;;;;;;18.64;47.12;100675.31;4862709;29;20041;-84
2021/12/11 10:52:23;;;;;;;10.35;3.65;;;;;;;18.75;47.05;100673.56;4863587;29;20116;-82
2021/12/11 10:54:51;;;;;;;9.43;3.38;;;;;;;18.83;46.77;100666.97;4847054;29;20175;-82
2021/12/11 10:57:18;;;;;;;8.50;3.08;;;;;;;19.08;46.30;100663.78;4863674;29;20037;-83
2021/12/11 10:59:48;;;;;;;7.78;2.97;;;;;;;19.02;46.75;100662.50;4845796;29;20392;-81
2021/12/11 11:02:21;;;;;;;10.75;3.80;;;;;;;19.23;46.35;100664.81;4862790;29;20487;-82
2021/12/11 11:04:54;;;;;;;8.70;2.60;;;;;;;19.18;46.62;100659.56;4845765;29;20146;-80
2021/12/11 11:07:22;;;;;;;8.07;3.35;;;;;;;19.32;46.25;100657.81;4846256;29;20040;-81
2021/12/11 11:09:49;;;;;;;5.53;2.53;;;;;;;19.15;46.91;100650.06;4846433;29;20116;-84
2021/12/11 11:12:21;;;;;;;6.53;3.05;;;;;;;19.22;47.04;100644.63;4863054;29;20042;-84
2021/12/11 11:14:49;;;;;;;5.97;2.22;;;;;;;19.22;46.94;100641.06;4846234;29;20038;-83
2021/12/11 11:17:21;;;;;;;8.30;2.28;;;;;;;19.20;47.45;100637.88;4846430;29;20090;-81
2021/12/11 11:19:49;;;;;;;9.95;2.67;;;;;;;19.34;47.04;100635.28;4862980;29;20029;-84
2021/12/11 11:22:21;;;;;;;8.18;2.17;;;;;;;19.41;47.00;100638.13;4846114;29;20037;-84
2021/12/11 11:24:54;;;;;;;7.72;3.25;;;;;;;19.49;47.17;100639.81;4863246;29;20060;-82
2021/12/11 11:27:19;;;;;;;5.60;4.63;;;;;;;19.51;47.28;100647.78;4849159;29;20069;-83
2021/12/11 11:29:47;;;;;;;7.38;2.70;;;;;;;19.52;47.32;100639.09;4826664;29;20038;-83
2021/12/11 11:32:19;;;;;;;7.78;3.53;;;;;;;19.59;47.58;100638.44;4843116;29;20037;-86
2021/12/11 11:34:46;;;;;;;9.60;3.33;;;;;;;19.75;47.27;100629.91;4843275;29;20038;-81
2021/12/11 11:37:22;;;;;;;11.02;9.80;;;;;;;19.73;47.69;100641.38;4826681;29;20038;-82
2021/12/11 11:39:49;;;;;;;6.95;4.30;;;;;;;19.75;47.85;100638.22;4827281;29;20552;-81
2021/12/11 11:42:19;;;;;;;8.15;4.10;;;;;;;20.04;47.17;100625.50;4827701;29;20117;-80
2021/12/11 11:44:46;;;;;;;4.22;2.55;;;;;;;20.22;46.63;100623.69;4827823;29;20042;-87
2021/12/11 11:47:14;;;;;;;13.23;7.50;;;;;;;20.24;46.82;100622.13;4843740;29;20129;-82
2021/12/11 11:49:41;;;;;;;3.53;2.90;;;;;;;20.15;47.15;100623.59;4827175;29;20042;-80
2021/12/11 11:52:11;;;;;;;2.58;1.50;;;;;;;19.86;47.99;100620.53;4827563;29;20117;-86